Time;durP1;ratioP1;P1;durP2;ratioP2;P2;SDS_P1;SDS_P2;PMS_P1;PMS_P2;Temp;Humidity;BMP_temperature;BMP_pressure;BME280_temperature;BME280_humidity;BME280_pressure;Samples;Min_cycle;Max_cycle;Signal;HPM_P1;HPM_P2
2023/12/20 00:01:42;;;;;;;4.50;2.75;;;;;;;;;;5095250;28;20042;-75
2023/12/20 00:04:08;;;;;;;3.15;2.72;;;;;;;;;;5097020;28;20082;-75
2023/12/20 00:06:33;;;;;;;4.72;2.75;;;;;;;;;;5096643;28;20082;-74
2023/12/20 00:08:58;;;;;;;3.67;3.20;;;;;;;;;;5096565;28;20036;-73
2023/12/20 00:11:24;;;;;;;5.18;3.10;;;;;;;;;;5096298;28;20016;-73
2023/12/20 00:13:50;;;;;;;3.30;2.90;;;;;;;;;;5096495;28;20032;-73
2023/12/20 00:16:15;;;;;;;3.03;2.80;;;;;;;;;;5078166;28;20470;-74
2023/12/20 00:18:40;;;;;;;5.47;3.50;;;;;;;;;;5078332;28;20032;-76
2023/12/20 00:21:08;;;;;;;4.93;2.95;;;;;;;;;;5096771;28;20051;-76
2023/12/20 00:23:33;;;;;;;4.10;3.10;;;;;;;;;;5096413;28;20414;-76
2023/12/20 00:25:59;;;;;;;4.65;2.97;;;;;;;;;;5096050;28;20075;-76
2023/12/20 00:28:25;;;;;;;3.80;3.22;;;;;;;;;;5077804;28;20059;-76
2023/12/20 00:30:51;;;;;;;4.00;2.63;;;;;;;;;;5096100;28;20111;-76
2023/12/20 00:33:16;;;;;;;3.03;2.72;;;;;;;;;;5095790;28;20065;-76
2023/12/20 00:35:41;;;;;;;3.78;3.22;;;;;;;;;;5096194;28;20028;-76
2023/12/20 00:38:14;;;;;;;2.38;2.15;;;;;;;;;;5091998;22;20498;-73
2023/12/20 00:40:40;;;;;;;2.97;2.78;;;;;;;;;;5075556;28;20028;-74
2023/12/20 00:43:06;;;;;;;4.38;2.75;;;;;;;;;;5075595;28;20033;-74
2023/12/20 00:45:31;;;;;;;3.13;2.83;;;;;;;;;;5076044;28;20020;-74
2023/12/20 00:48:03;;;;;;;3.70;2.53;;;;;;;;;;5075957;28;20123;-75
2023/12/20 00:50:29;;;;;;;3.00;2.70;;;;;;;;;;5075915;28;20024;-75
2023/12/20 00:57:10;;;;;;;2.63;2.42;;;;;;;;;;5077973;22;20104;-75
2023/12/20 00:59:36;;;;;;;3.10;2.60;;;;;;;;;;5077021;28;20419;-75
2023/12/20 01:02:01;;;;;;;3.78;2.85;;;;;;;;;;5076093;28;20111;-75
2023/12/20 01:04:26;;;;;;;3.00;2.75;;;;;;;;;;5075853;28;20071;-75
2023/12/20 01:06:52;;;;;;;3.33;2.95;;;;;;;;;;5094670;28;20036;-75
2023/12/20 01:09:18;;;;;;;3.08;2.75;;;;;;;;;;5076595;28;20036;-75
2023/12/20 01:11:44;;;;;;;3.30;2.70;;;;;;;;;;5095250;28;20023;-74
2023/12/20 01:14:09;;;;;;;3.42;2.92;;;;;;;;;;5075632;28;20028;-75
2023/12/20 01:16:34;;;;;;;5.88;3.13;;;;;;;;;;5058440;28;20409;-75
2023/12/20 01:19:00;;;;;;;3.70;2.25;;;;;;;;;;5092981;28;20028;-74
2023/12/20 01:21:25;;;;;;;3.03;2.72;;;;;;;;;;5074861;28;20020;-74
2023/12/20 01:23:50;;;;;;;4.45;3.20;;;;;;;;;;5074930;28;20020;-74
2023/12/20 01:26:16;;;;;;;4.13;2.83;;;;;;;;;;5093155;28;20340;-75
2023/12/20 01:28:42;;;;;;;2.88;2.65;;;;;;;;;;5075971;28;20039;-74
2023/12/20 01:31:08;;;;;;;4.28;2.80;;;;;;;;;;5094784;28;20097;-75
2023/12/20 01:33:33;;;;;;;2.92;2.60;;;;;;;;;;5094345;28;20043;-75
2023/12/20 01:35:58;;;;;;;2.85;2.55;;;;;;;;;;5094603;28;20034;-76
2023/12/20 01:38:26;;;;;;;3.22;2.60;;;;;;;;;;5094774;28;20020;-76
2023/12/20 01:40:51;;;;;;;3.97;2.22;;;;;;;;;;5094532;28;20046;-76
2023/12/20 01:43:17;;;;;;;4.15;2.70;;;;;;;;;;5059641;28;20101;-75
2023/12/20 01:45:42;;;;;;;2.88;2.58;;;;;;;;;;5094522;28;20036;-76
2023/12/20 01:48:08;;;;;;;3.22;2.33;;;;;;;;;;5060231;28;20036;-75
2023/12/20 01:50:35;;;;;;;3.00;2.60;;;;;;;;;;5076497;28;20024;-75
2023/12/20 01:53:02;;;;;;;3.65;2.67;;;;;;;;;;5076315;28;20381;-75
2023/12/20 01:55:32;;;;;;;2.55;2.35;;;;;;;;;;5102040;22;20108;-77
2023/12/20 01:57:58;;;;;;;3.08;2.70;;;;;;;;;;5094349;28;20465;-76
2023/12/20 02:00:26;;;;;;;3.55;2.40;;;;;;;;;;5094340;28;20035;-76
2023/12/20 02:02:52;;;;;;;3.08;2.38;;;;;;;;;;5076193;28;20028;-76
2023/12/20 02:05:19;;;;;;;2.60;2.35;;;;;;;;;;5094918;28;20036;-76
2023/12/20 02:07:45;;;;;;;2.53;2.22;;;;;;;;;;5076101;28;20436;-76
2023/12/20 02:10:10;;;;;;;2.40;2.20;;;;;;;;;;5094036;28;20020;-75
2023/12/20 02:12:36;;;;;;;2.55;2.17;;;;;;;;;;5094094;28;20032;-76
2023/12/20 02:15:01;;;;;;;2.85;2.38;;;;;;;;;;5075990;28;20027;-74
2023/12/20 02:17:27;;;;;;;2.28;2.10;;;;;;;;;;5093716;28;20426;-75
2023/12/20 02:19:53;;;;;;;2.55;2.35;;;;;;;;;;5093714;28;20074;-74
2023/12/20 02:22:18;;;;;;;1.63;1.52;;;;;;;;;;5075951;28;20465;-73
2023/12/20 02:24:44;;;;;;;2.67;2.47;;;;;;;;;;5076213;28;20016;-74
2023/12/20 02:27:09;;;;;;;2.60;2.22;;;;;;;;;;5094159;28;20530;-74
2023/12/20 02:29:35;;;;;;;3.60;2.47;;;;;;;;;;5093931;28;20032;-74
2023/12/20 02:32:01;;;;;;;2.63;2.15;;;;;;;;;;5093139;28;20126;-74
2023/12/20 02:34:26;;;;;;;2.47;2.25;;;;;;;;;;5075724;28;20173;-73
2023/12/20 02:36:52;;;;;;;2.63;2.42;;;;;;;;;;5075926;28;20077;-73
2023/12/20 02:39:18;;;;;;;2.45;2.25;;;;;;;;;;5075575;28;20110;-74
2023/12/20 02:41:43;;;;;;;2.42;2.22;;;;;;;;;;5075654;28;20025;-74
2023/12/20 02:44:10;;;;;;;2.22;1.92;;;;;;;;;;5076174;28;20027;-75
2023/12/20 02:46:35;;;;;;;2.88;2.67;;;;;;;;;;5093667;28;20058;-74
2023/12/20 02:49:01;;;;;;;2.65;2.33;;;;;;;;;;5093568;28;20073;-74
2023/12/20 02:51:26;;;;;;;2.60;2.40;;;;;;;;;;5093712;28;20456;-74
2023/12/20 02:53:52;;;;;;;2.72;2.13;;;;;;;;;;5093706;28;20062;-74
2023/12/20 02:56:17;;;;;;;2.78;2.50;;;;;;;;;;5075767;28;20359;-74
2023/12/20 02:58:45;;;;;;;2.08;1.88;;;;;;;;;;5094326;28;20024;-74
2023/12/20 03:04:16;;;;;;;2.67;2.33;;;;;;;;;;4985439;28;20401;-77
2023/12/20 03:06:42;;;;;;;2.47;2.28;;;;;;;;;;4993284;28;20034;-77
2023/12/20 03:09:08;;;;;;;2.75;2.53;;;;;;;;;;4992705;28;20038;-77
2023/12/20 03:14:33;;;;;;;2.53;2.30;;;;;;;;;;5045907;28;20056;-73
2023/12/20 03:16:59;;;;;;;3.95;2.95;;;;;;;;;;5035500;28;20029;-72
2023/12/20 03:19:24;;;;;;;3.45;3.15;;;;;;;;;;5053841;28;20036;-74
2023/12/20 03:21:50;;;;;;;3.35;2.65;;;;;;;;;;5053093;28;20096;-74
2023/12/20 03:24:15;;;;;;;3.58;2.75;;;;;;;;;;5035670;28;20063;-74
2023/12/20 03:26:40;;;;;;;3.20;3.00;;;;;;;;;;5053057;28;20040;-75
2023/12/20 03:29:06;;;;;;;4.05;2.72;;;;;;;;;;5053723;28;20040;-74
2023/12/20 03:31:31;;;;;;;3.28;2.97;;;;;;;;;;5057033;28;20020;-74
2023/12/20 03:33:57;;;;;;;3.70;3.35;;;;;;;;;;5056727;28;20047;-74
2023/12/20 03:36:22;;;;;;;3.40;3.05;;;;;;;;;;5056830;28;20048;-73
2023/12/20 03:38:47;;;;;;;3.40;2.97;;;;;;;;;;5022150;28;20192;-74
2023/12/20 03:41:13;;;;;;;3.42;3.13;;;;;;;;;;5056725;28;20017;-76
2023/12/20 03:43:38;;;;;;;5.82;3.42;;;;;;;;;;5056538;28;20471;-77
2023/12/20 03:46:04;;;;;;;5.82;3.40;;;;;;;;;;5056652;28;20021;-77
2023/12/20 03:48:30;;;;;;;5.03;3.65;;;;;;;;;;5038841;28;20037;-76
2023/12/20 03:50:56;;;;;;;4.28;3.70;;;;;;;;;;5056409;28;20061;-81
2023/12/20 03:53:22;;;;;;;7.13;4.10;;;;;;;;;;5056273;28;20021;-82
2023/12/20 03:55:47;;;;;;;5.25;3.45;;;;;;;;;;5056155;28;20535;-77
2023/12/20 03:58:13;;;;;;;6.22;4.15;;;;;;;;;;5056297;28;20482;-80
2023/12/20 04:00:38;;;;;;;6.65;3.78;;;;;;;;;;5055955;28;20033;-72
2023/12/20 04:03:04;;;;;;;4.18;3.78;;;;;;;;;;5056204;28;20057;-72
2023/12/20 04:05:29;;;;;;;3.80;3.50;;;;;;;;;;5056214;28;20387;-70
2023/12/20 04:07:54;;;;;;;5.50;3.70;;;;;;;;;;5038424;28;20115;-69
2023/12/20 04:10:20;;;;;;;3.30;3.00;;;;;;;;;;5038234;28;20102;-71
2023/12/20 04:12:46;;;;;;;5.43;3.90;;;;;;;;;;5055979;28;20095;-72
2023/12/20 04:15:11;;;;;;;4.28;3.88;;;;;;;;;;5038217;28;20032;-71
2023/12/20 04:17:37;;;;;;;4.10;3.63;;;;;;;;;;5056502;28;20021;-73
2023/12/20 04:20:03;;;;;;;4.72;3.88;;;;;;;;;;5055860;28;20418;-73
2023/12/20 04:22:28;;;;;;;3.85;3.55;;;;;;;;;;5056111;28;20088;-71
2023/12/20 04:24:53;;;;;;;4.10;3.67;;;;;;;;;;5038065;28;20386;-71
2023/12/20 04:27:18;;;;;;;4.30;3.95;;;;;;;;;;5056008;28;20419;-73
2023/12/20 04:29:44;;;;;;;5.38;3.53;;;;;;;;;;5055929;28;20436;-74
2023/12/20 04:32:09;;;;;;;4.38;3.97;;;;;;;;;;5038116;28;20033;-73
2023/12/20 04:34:35;;;;;;;3.97;3.58;;;;;;;;;;5037537;28;20036;-74
2023/12/20 04:37:01;;;;;;;4.93;4.07;;;;;;;;;;5037975;28;20033;-75
2023/12/20 04:39:27;;;;;;;5.45;4.22;;;;;;;;;;5038051;28;20020;-73
2023/12/20 04:41:53;;;;;;;5.32;4.07;;;;;;;;;;5054843;28;20021;-75
2023/12/20 04:44:19;;;;;;;4.30;3.75;;;;;;;;;;5055121;28;20064;-76
2023/12/20 04:46:45;;;;;;;4.45;3.60;;;;;;;;;;5055499;28;20024;-76
2023/12/20 04:49:10;;;;;;;3.90;3.60;;;;;;;;;;5055290;28;20478;-76
2023/12/20 04:51:35;;;;;;;4.18;3.80;;;;;;;;;;5054911;28;20502;-79
2023/12/20 04:54:04;;;;;;;4.47;3.20;;;;;;;;;;5037503;28;20476;-77
2023/12/20 04:56:29;;;;;;;4.15;3.75;;;;;;;;;;5055628;28;20033;-78
2023/12/20 04:58:55;;;;;;;6.57;3.90;;;;;;;;;;5020716;28;20036;-81
2023/12/20 05:01:22;;;;;;;4.53;4.13;;;;;;;;;;5055259;28;20024;-81
2023/12/20 05:03:48;;;;;;;5.78;4.10;;;;;;;;;;5055338;28;20091;-79
2023/12/20 05:06:14;;;;;;;4.07;3.78;;;;;;;;;;5054455;28;20067;-78
2023/12/20 05:08:40;;;;;;;3.78;3.50;;;;;;;;;;5054233;28;20024;-75
2023/12/20 05:11:06;;;;;;;4.75;4.30;;;;;;;;;;5036096;28;20033;-77
2023/12/20 05:13:32;;;;;;;4.65;4.20;;;;;;;;;;5019179;28;20471;-75
2023/12/20 05:15:57;;;;;;;5.10;4.60;;;;;;;;;;5054232;28;20025;-77
2023/12/20 05:18:23;;;;;;;8.93;6.00;;;;;;;;;;5054155;28;20777;-74
2023/12/20 05:20:49;;;;;;;6.00;4.60;;;;;;;;;;5036309;28;20025;-74
2023/12/20 05:23:15;;;;;;;6.68;5.93;;;;;;;;;;5037138;28;20032;-81
2023/12/20 05:25:40;;;;;;;6.60;5.75;;;;;;;;;;5053713;28;20429;-76
2023/12/20 05:28:06;;;;;;;5.28;4.78;;;;;;;;;;5054707;28;20497;-76
2023/12/20 05:30:32;;;;;;;7.05;5.72;;;;;;;;;;5054782;28;20025;-76
2023/12/20 05:32:57;;;;;;;7.57;5.95;;;;;;;;;;5036371;28;20047;-76
2023/12/20 05:35:24;;;;;;;6.32;5.25;;;;;;;;;;5074675;22;20509;-75
2023/12/20 05:37:50;;;;;;;5.22;4.72;;;;;;;;;;5056304;28;20043;-76
2023/12/20 05:40:15;;;;;;;5.38;4.85;;;;;;;;;;5056064;28;20024;-77
2023/12/20 05:46:34;;;;;;;7.35;5.43;;;;;;;;;;5072733;28;20087;-80
2023/12/20 05:49:00;;;;;;;6.93;5.05;;;;;;;;;;5074730;28;20103;-79
2023/12/20 05:51:25;;;;;;;7.20;5.35;;;;;;;;;;5056122;28;20109;-79
2023/12/20 05:53:51;;;;;;;6.93;5.53;;;;;;;;;;5055941;28;20029;-79
2023/12/20 05:56:16;;;;;;;6.43;5.63;;;;;;;;;;5056105;28;20037;-80
2023/12/20 05:58:41;;;;;;;5.40;4.93;;;;;;;;;;5074047;28;20104;-78
2023/12/20 06:01:08;;;;;;;5.50;4.82;;;;;;;;;;5056063;28;20509;-77
2023/12/20 06:03:33;;;;;;;7.40;5.43;;;;;;;;;;5056412;28;20021;-77
2023/12/20 06:06:00;;;;;;;6.40;4.75;;;;;;;;;;5073969;28;20028;-76
2023/12/20 06:08:26;;;;;;;5.00;4.45;;;;;;;;;;5055732;28;20028;-76
2023/12/20 06:10:51;;;;;;;4.57;4.18;;;;;;;;;;5074141;28;20039;-76
2023/12/20 06:13:17;;;;;;;8.10;4.78;;;;;;;;;;5073845;28;20111;-76
2023/12/20 06:15:42;;;;;;;5.30;4.78;;;;;;;;;;5085920;28;20131;-76
2023/12/20 06:18:07;;;;;;;5.60;5.03;;;;;;;;;;5047946;28;20067;-76
2023/12/20 06:20:33;;;;;;;7.03;5.28;;;;;;;;;;5081564;28;20503;-76
2023/12/20 06:22:58;;;;;;;7.28;5.07;;;;;;;;;;5056383;28;20029;-76
2023/12/20 06:25:24;;;;;;;6.57;5.32;;;;;;;;;;5055609;28;20089;-77
2023/12/20 06:27:50;;;;;;;5.53;5.03;;;;;;;;;;5086799;28;20120;-77
2023/12/20 06:30:15;;;;;;;5.60;4.95;;;;;;;;;;5073822;28;20090;-77
2023/12/20 06:32:42;;;;;;;5.40;4.90;;;;;;;;;;5073899;28;20027;-77
2023/12/20 06:35:08;;;;;;;8.00;5.30;;;;;;;;;;5074356;28;20112;-77
2023/12/20 06:37:33;;;;;;;6.50;5.50;;;;;;;;;;5073860;28;20020;-77
2023/12/20 06:39:59;;;;;;;6.75;5.88;;;;;;;;;;5073596;28;20029;-78
2023/12/20 06:42:24;;;;;;;5.28;4.53;;;;;;;;;;5073836;28;20025;-78
2023/12/20 06:44:50;;;;;;;5.93;5.00;;;;;;;;;;5053372;28;20590;-77
2023/12/20 06:47:16;;;;;;;7.07;5.55;;;;;;;;;;5073502;28;20032;-78
2023/12/20 06:49:41;;;;;;;5.68;4.85;;;;;;;;;;5073754;28;20111;-78
2023/12/20 06:52:07;;;;;;;5.55;5.05;;;;;;;;;;5073943;28;20116;-78
2023/12/20 06:54:34;;;;;;;7.00;5.68;;;;;;;;;;5073397;28;20052;-78
2023/12/20 06:56:59;;;;;;;6.93;5.30;;;;;;;;;;5073633;28;20043;-78
2023/12/20 06:59:25;;;;;;;8.13;6.35;;;;;;;;;;5055731;28;20025;-77
2023/12/20 07:01:51;;;;;;;7.07;5.43;;;;;;;;;;5055457;28;20028;-76
2023/12/20 07:04:20;;;;;;;7.55;5.32;;;;;;;;;;5074343;28;20039;-76
2023/12/20 07:06:46;;;;;;;6.47;5.28;;;;;;;;;;5077840;28;20060;-76
2023/12/20 07:09:13;;;;;;;8.57;6.10;;;;;;;;;;5080425;28;20363;-76
2023/12/20 07:11:38;;;;;;;6.55;5.00;;;;;;;;;;5081502;28;20028;-77
2023/12/20 07:14:04;;;;;;;6.38;5.18;;;;;;;;;;5062670;28;20075;-77
2023/12/20 07:16:29;;;;;;;6.32;5.18;;;;;;;;;;5059529;28;20032;-76
2023/12/20 07:18:56;;;;;;;8.73;5.35;;;;;;;;;;5077221;28;20028;-77
2023/12/20 07:21:21;;;;;;;6.15;5.55;;;;;;;;;;5075816;28;20471;-76
2023/12/20 07:23:46;;;;;;;7.30;6.30;;;;;;;;;;5059563;28;20028;-76
2023/12/20 07:26:12;;;;;;;7.25;5.70;;;;;;;;;;5059032;28;20039;-77
2023/12/20 07:28:37;;;;;;;8.85;6.40;;;;;;;;;;5077174;28;20032;-77
2023/12/20 07:31:03;;;;;;;8.15;5.35;;;;;;;;;;5059017;28;20455;-77
2023/12/20 07:33:28;;;;;;;7.90;5.97;;;;;;;;;;5058853;28;20074;-77
2023/12/20 07:35:53;;;;;;;7.50;5.43;;;;;;;;;;5077226;28;20032;-77
2023/12/20 07:38:19;;;;;;;9.98;5.80;;;;;;;;;;5076968;28;20017;-77
2023/12/20 07:40:44;;;;;;;7.90;6.40;;;;;;;;;;5076963;28;20025;-77
2023/12/20 07:43:10;;;;;;;10.02;6.70;;;;;;;;;;5076990;28;20555;-77
2023/12/20 07:45:35;;;;;;;6.72;5.40;;;;;;;;;;5076364;28;20052;-77
2023/12/20 07:48:00;;;;;;;9.25;6.82;;;;;;;;;;5058628;28;20064;-77
2023/12/20 07:50:27;;;;;;;6.88;6.03;;;;;;;;;;5058577;28;20081;-77
2023/12/20 07:52:53;;;;;;;9.50;7.05;;;;;;;;;;5058953;28;20028;-77
2023/12/20 07:55:19;;;;;;;9.32;6.75;;;;;;;;;;5076257;28;20039;-77
2023/12/20 07:57:44;;;;;;;9.73;7.50;;;;;;;;;;5059062;28;20033;-77
2023/12/20 08:00:10;;;;;;;7.60;6.35;;;;;;;;;;5076314;28;20046;-77
2023/12/20 08:02:36;;;;;;;10.88;6.90;;;;;;;;;;5076228;28;20099;-77
2023/12/20 08:05:02;;;;;;;9.40;7.40;;;;;;;;;;5075512;28;20020;-77
2023/12/20 08:07:27;;;;;;;9.23;6.93;;;;;;;;;;5076408;28;20024;-76
2023/12/20 08:09:54;;;;;;;8.63;7.03;;;;;;;;;;5058588;28;20119;-76
2023/12/20 08:12:20;;;;;;;7.28;6.40;;;;;;;;;;5075954;28;20028;-76
2023/12/20 08:14:45;;;;;;;7.53;6.15;;;;;;;;;;5058750;28;20025;-76
2023/12/20 08:17:12;;;;;;;9.40;6.82;;;;;;;;;;5074203;28;20029;-76
2023/12/20 08:19:37;;;;;;;9.85;6.22;;;;;;;;;;5075944;28;20033;-77
2023/12/20 08:22:03;;;;;;;7.28;6.13;;;;;;;;;;5076201;28;20023;-77
2023/12/20 08:24:30;;;;;;;8.95;6.32;;;;;;;;;;5076111;28;20079;-77
2023/12/20 08:26:56;;;;;;;8.80;6.88;;;;;;;;;;5057927;28;20478;-77
2023/12/20 08:29:21;;;;;;;11.95;7.43;;;;;;;;;;5076024;28;20033;-67
2023/12/20 08:31:51;;;;;;;9.07;6.85;;;;;;;;;;5057647;28;20028;-74
2023/12/20 08:34:17;;;;;;;8.15;7.30;;;;;;;;;;5075697;28;20474;-74
2023/12/20 08:36:42;;;;;;;8.25;6.30;;;;;;;;;;5057528;28;20032;-77
2023/12/20 08:39:08;;;;;;;7.05;6.35;;;;;;;;;;5076175;28;20016;-67
2023/12/20 08:41:35;;;;;;;8.35;6.65;;;;;;;;;;5076119;28;20025;-75
2023/12/20 08:44:01;;;;;;;7.90;6.68;;;;;;;;;;5075611;28;20132;-78
2023/12/20 08:46:27;;;;;;;8.32;7.07;;;;;;;;;;5058144;28;20055;-79
2023/12/20 08:48:52;;;;;;;7.50;5.95;;;;;;;;;;5075404;28;20475;-79
2023/12/20 08:51:17;;;;;;;7.80;6.60;;;;;;;;;;5100520;22;20040;-80
2023/12/20 08:53:45;;;;;;;10.20;6.50;;;;;;;;;;5096817;22;20048;-79
2023/12/20 08:56:10;;;;;;;8.27;6.20;;;;;;;;;;5095937;28;20039;-79
2023/12/20 08:58:35;;;;;;;9.02;7.20;;;;;;;;;;5096011;28;20032;-80
2023/12/20 09:01:07;;;;;;;7.03;5.90;;;;;;;;;;5077544;28;20032;-80
2023/12/20 09:03:32;;;;;;;9.02;6.78;;;;;;;;;;5077203;28;20055;-79
2023/12/20 09:05:58;;;;;;;8.38;6.50;;;;;;;;;;5095263;28;20401;-80
2023/12/20 09:08:23;;;;;;;10.20;6.53;;;;;;;;;;5095251;28;20039;-77
2023/12/20 09:10:49;;;;;;;9.02;6.53;;;;;;;;;;5095827;28;20157;-72
2023/12/20 09:13:14;;;;;;;10.30;7.72;;;;;;;;;;5095166;28;20470;-72
2023/12/20 09:15:40;;;;;;;8.32;6.25;;;;;;;;;;5094993;28;20488;-72
2023/12/20 09:18:05;;;;;;;8.88;7.15;;;;;;;;;;5095330;28;20409;-72
2023/12/20 09:20:31;;;;;;;8.05;6.03;;;;;;;;;;5095557;28;20545;-72
2023/12/20 09:22:56;;;;;;;7.55;6.57;;;;;;;;;;5076751;28;20487;-72
2023/12/20 09:25:23;;;;;;;6.57;5.32;;;;;;;;;;5095478;28;20073;-73
2023/12/20 09:27:48;;;;;;;6.93;6.18;;;;;;;;;;5094441;28;20036;-74
2023/12/20 09:30:14;;;;;;;6.80;5.85;;;;;;;;;;5095819;28;20074;-73
2023/12/20 09:32:40;;;;;;;7.55;6.40;;;;;;;;;;5094777;28;20028;-71
2023/12/20 09:35:06;;;;;;;6.05;5.25;;;;;;;;;;5076636;28;20031;-72
2023/12/20 09:37:31;;;;;;;7.75;6.43;;;;;;;;;;5094617;28;20032;-73
2023/12/20 09:39:57;;;;;;;7.40;4.97;;;;;;;;;;5094916;28;20035;-72
2023/12/20 09:42:39;;;;;;;7.90;6.18;;;;;;;;;;5059787;28;20028;-73
2023/12/20 09:45:08;;;;;;;7.38;6.22;;;;;;;;;;5094566;28;20039;-72
2023/12/20 09:47:33;;;;;;;9.63;7.00;;;;;;;;;;5094804;28;20024;-71
2023/12/20 09:49:59;;;;;;;8.45;6.72;;;;;;;;;;5094755;28;20126;-70
2023/12/20 09:52:24;;;;;;;9.43;6.72;;;;;;;;;;5076354;28;20040;-70
2023/12/20 09:54:52;;;;;;;8.75;6.70;;;;;;;;;;5094740;28;20079;-71
2023/12/20 09:57:17;;;;;;;9.75;6.97;;;;;;;;;;5094346;28;20043;-71
2023/12/20 09:59:43;;;;;;;10.10;6.28;;;;;;;;;;5093266;28;20028;-71
2023/12/20 10:02:10;;;;;;;7.38;5.85;;;;;;;;;;5075574;28;20485;-71
2023/12/20 10:04:36;;;;;;;7.43;5.85;;;;;;;;;;5093517;28;20035;-72
2023/12/20 10:07:03;;;;;;;8.68;6.00;;;;;;;;;;5092888;28;20016;-71
2023/12/20 10:09:30;;;;;;;7.05;6.07;;;;;;;;;;5092800;28;20036;-72
2023/12/20 10:11:57;;;;;;;6.57;5.43;;;;;;;;;;5093127;28;20031;-71
2023/12/20 10:14:25;;;;;;;8.02;6.18;;;;;;;;;;5093954;28;20036;-72
2023/12/20 10:16:50;;;;;;;7.35;6.40;;;;;;;;;;5094269;28;20077;-72
2023/12/20 10:19:19;;;;;;;7.28;5.43;;;;;;;;;;5075897;28;20055;-72
2023/12/20 10:21:45;;;;;;;6.88;5.65;;;;;;;;;;5093963;28;20036;-71
2023/12/20 10:24:16;;;;;;;9.25;6.20;;;;;;;;;;5094517;28;20028;-71
2023/12/20 10:26:41;;;;;;;5.97;5.38;;;;;;;;;;5093891;28;20061;-70
2023/12/20 10:29:07;;;;;;;11.15;6.95;;;;;;;;;;5076162;28;20040;-72
2023/12/20 10:31:33;;;;;;;7.80;6.65;;;;;;;;;;5093857;28;20067;-70
2023/12/20 10:33:59;;;;;;;7.53;5.60;;;;;;;;;;5075732;28;20431;-71
2023/12/20 10:36:32;;;;;;;9.02;6.03;;;;;;;;;;5093724;28;20089;-72
2023/12/20 10:38:58;;;;;;;6.47;5.13;;;;;;;;;;5093785;28;20082;-70
2023/12/20 10:41:30;;;;;;;6.03;4.90;;;;;;;;;;5093993;28;20021;-71
2023/12/20 10:44:05;;;;;;;6.78;5.93;;;;;;;;;;5093687;28;20077;-71
2023/12/20 10:46:32;;;;;;;6.05;5.13;;;;;;;;;;5094211;28;20084;-70
2023/12/20 10:48:57;;;;;;;8.45;6.35;;;;;;;;;;5094220;28;20036;-72
2023/12/20 10:51:25;;;;;;;5.68;5.18;;;;;;;;;;5093942;28;20028;-72
2023/12/20 10:53:52;;;;;;;5.85;5.07;;;;;;;;;;5093497;28;20375;-72
2023/12/20 10:56:18;;;;;;;8.05;6.35;;;;;;;;;;5093534;28;20115;-71
2023/12/20 10:58:44;;;;;;;6.32;5.75;;;;;;;;;;5093605;28;20020;-72
2023/12/20 11:01:12;;;;;;;7.97;6.97;;;;;;;;;;5093555;28;20029;-72
2023/12/20 11:03:38;;;;;;;9.88;7.85;;;;;;;;;;5093856;28;20103;-72
2023/12/20 11:06:07;;;;;;;9.13;7.38;;;;;;;;;;5075447;28;20366;-72
2023/12/20 11:08:51;;;;;;;10.63;8.10;;;;;;;;;;5093520;28;20394;-72
2023/12/20 11:11:16;;;;;;;8.15;5.78;;;;;;;;;;5075778;28;20032;-72
2023/12/20 11:13:53;;;;;;;10.02;6.82;;;;;;;;;;5093512;28;20081;-72
2023/12/20 11:16:18;;;;;;;12.25;8.30;;;;;;;;;;5093410;28;20032;-72
2023/12/20 11:18:44;;;;;;;9.52;6.82;;;;;;;;;;5093988;28;20073;-72
2023/12/20 11:21:11;;;;;;;10.43;7.40;;;;;;;;;;5093373;28;20020;-72
2023/12/20 11:23:36;;;;;;;12.00;7.63;;;;;;;;;;5058642;28;20044;-72
2023/12/20 11:26:02;;;;;;;13.73;7.63;;;;;;;;;;5093890;28;20071;-70
2023/12/20 11:28:29;;;;;;;10.48;7.65;;;;;;;;;;5093640;28;20040;-72
2023/12/20 11:30:56;;;;;;;13.13;8.05;;;;;;;;;;5075588;28;20454;-72
2023/12/20 11:33:24;;;;;;;10.48;7.32;;;;;;;;;;5093287;28;20028;-72
2023/12/20 11:35:50;;;;;;;7.72;6.03;;;;;;;;;;5093136;28;20032;-72
2023/12/20 11:38:15;;;;;;;9.25;5.88;;;;;;;;;;5093515;28;20035;-72
2023/12/20 11:40:41;;;;;;;5.30;4.80;;;;;;;;;;5075947;28;20066;-72
2023/12/20 11:43:08;;;;;;;6.88;5.45;;;;;;;;;;5075151;28;20028;-72
2023/12/20 11:45:34;;;;;;;4.97;4.38;;;;;;;;;;5093428;28;20466;-72
2023/12/20 11:50:46;;;;;;;8.93;6.28;;;;;;;;;;5102161;22;20130;-74
2023/12/20 11:53:12;;;;;;;9.70;7.15;;;;;;;;;;5096729;28;20059;-73
2023/12/20 11:55:37;;;;;;;9.02;6.13;;;;;;;;;;5096834;28;20433;-73
2023/12/20 11:58:03;;;;;;;13.10;7.95;;;;;;;;;;5098781;28;20020;-73
2023/12/20 12:00:29;;;;;;;13.43;8.02;;;;;;;;;;5080223;28;20205;-73
2023/12/20 12:02:58;;;;;;;10.90;7.53;;;;;;;;;;5097419;28;20024;-73
2023/12/20 12:05:23;;;;;;;11.43;7.03;;;;;;;;;;5096473;28;20032;-73
2023/12/20 12:07:48;;;;;;;10.63;7.63;;;;;;;;;;5096611;28;20024;-73
2023/12/20 12:10:14;;;;;;;9.77;6.90;;;;;;;;;;5096672;28;20031;-74
2023/12/20 12:12:39;;;;;;;9.68;7.22;;;;;;;;;;5096589;28;20032;-73
2023/12/20 12:15:05;;;;;;;10.00;7.40;;;;;;;;;;5078114;28;20074;-73
2023/12/20 12:17:30;;;;;;;8.95;6.63;;;;;;;;;;5095961;28;20028;-73
2023/12/20 12:20:04;;;;;;;8.63;5.60;;;;;;;;;;5078028;28;20032;-73
2023/12/20 12:22:30;;;;;;;7.70;5.13;;;;;;;;;;5096411;28;20061;-73
2023/12/20 12:24:58;;;;;;;8.77;6.43;;;;;;;;;;5096430;28;20027;-73
2023/12/20 12:27:24;;;;;;;7.93;5.47;;;;;;;;;;5096058;28;20077;-73
2023/12/20 12:30:03;;;;;;;4.82;4.07;;;;;;;;;;5096564;28;20028;-73
2023/12/20 12:32:29;;;;;;;5.35;4.75;;;;;;;;;;5096220;28;20052;-73
2023/12/20 12:34:54;;;;;;;5.45;4.90;;;;;;;;;;5095931;28;20036;-73
2023/12/20 12:37:19;;;;;;;5.40;4.82;;;;;;;;;;5095767;28;20412;-73
2023/12/20 12:39:46;;;;;;;4.50;4.10;;;;;;;;;;5095822;28;20016;-73
2023/12/20 12:42:11;;;;;;;4.40;3.97;;;;;;;;;;5095682;28;20060;-73
2023/12/20 12:44:37;;;;;;;4.72;4.32;;;;;;;;;;5095993;28;20109;-73
2023/12/20 12:47:03;;;;;;;5.72;4.80;;;;;;;;;;5094806;28;20039;-73
2023/12/20 12:49:28;;;;;;;5.90;4.22;;;;;;;;;;5077407;28;20033;-73
2023/12/20 12:51:56;;;;;;;4.88;4.07;;;;;;;;;;5095842;28;20036;-73
2023/12/20 12:54:21;;;;;;;6.80;4.32;;;;;;;;;;5095496;28;20035;-73
2023/12/20 12:56:47;;;;;;;4.70;4.28;;;;;;;;;;5077398;28;20047;-73
2023/12/20 12:59:13;;;;;;;4.57;4.07;;;;;;;;;;5077294;28;20055;-73
2023/12/20 13:01:38;;;;;;;3.97;3.55;;;;;;;;;;5095361;28;20058;-73
2023/12/20 13:04:06;;;;;;;4.82;4.43;;;;;;;;;;5076637;28;20028;-73
2023/12/20 13:06:32;;;;;;;7.68;5.78;;;;;;;;;;5095272;28;20096;-73
2023/12/20 13:08:57;;;;;;;10.93;8.18;;;;;;;;;;5095241;28;20455;-71
2023/12/20 13:11:23;;;;;;;9.63;7.28;;;;;;;;;;5095455;28;20028;-73
2023/12/20 13:13:48;;;;;;;11.48;8.18;;;;;;;;;;5095687;28;20078;-73
2023/12/20 13:16:14;;;;;;;4.13;3.70;;;;;;;;;;5095336;28;20039;-73
2023/12/20 13:18:42;;;;;;;4.88;3.50;;;;;;;;;;5077048;28;20052;-73
2023/12/20 13:21:07;;;;;;;4.75;3.95;;;;;;;;;;5095046;28;20012;-74
2023/12/20 13:23:33;;;;;;;4.90;3.65;;;;;;;;;;5094999;28;20046;-74
2023/12/20 13:25:59;;;;;;;4.75;4.25;;;;;;;;;;5095212;28;20409;-73
2023/12/20 13:28:24;;;;;;;4.53;4.10;;;;;;;;;;5077383;28;20032;-73
2023/12/20 13:30:49;;;;;;;4.72;4.07;;;;;;;;;;5095105;28;20051;-73
2023/12/20 13:33:15;;;;;;;4.03;3.45;;;;;;;;;;5094809;28;20032;-73
2023/12/20 13:35:40;;;;;;;6.03;4.13;;;;;;;;;;5094911;28;20039;-73
2023/12/20 13:38:05;;;;;;;5.88;4.55;;;;;;;;;;5094955;28;20027;-73
2023/12/20 13:40:31;;;;;;;4.88;4.47;;;;;;;;;;5094922;28;20107;-72
2023/12/20 13:42:57;;;;;;;8.48;5.22;;;;;;;;;;5076557;28;20450;-73
2023/12/20 13:45:22;;;;;;;6.00;4.82;;;;;;;;;;5076408;28;20035;-73
2023/12/20 13:47:49;;;;;;;5.32;4.35;;;;;;;;;;5094509;28;20032;-73
2023/12/20 13:50:14;;;;;;;5.55;4.95;;;;;;;;;;5094348;28;20072;-73
2023/12/20 13:52:40;;;;;;;6.57;5.07;;;;;;;;;;5094438;28;20070;-73
2023/12/20 13:55:07;;;;;;;6.35;4.97;;;;;;;;;;5094720;28;20081;-73
2023/12/20 13:57:34;;;;;;;7.03;4.97;;;;;;;;;;5094264;28;20035;-73
2023/12/20 13:59:59;;;;;;;7.25;5.38;;;;;;;;;;5076839;28;20064;-73
2023/12/20 14:02:26;;;;;;;8.32;6.18;;;;;;;;;;5094564;28;20062;-73
2023/12/20 14:04:52;;;;;;;6.50;4.95;;;;;;;;;;5076099;28;20149;-73
2023/12/20 14:07:17;;;;;;;7.70;5.82;;;;;;;;;;5094170;28;20166;-73
2023/12/20 14:09:45;;;;;;;5.50;4.93;;;;;;;;;;5094100;28;20036;-73
2023/12/20 14:12:11;;;;;;;5.43;4.78;;;;;;;;;;5093475;28;20082;-73
2023/12/20 14:14:36;;;;;;;5.25;4.50;;;;;;;;;;5070882;28;20463;-72
2023/12/20 14:17:02;;;;;;;5.97;5.03;;;;;;;;;;5092190;28;20032;-72
2023/12/20 14:19:27;;;;;;;5.35;4.35;;;;;;;;;;5092989;28;20027;-72
2023/12/20 14:21:53;;;;;;;4.80;3.97;;;;;;;;;;5093051;28;20056;-72
2023/12/20 14:24:18;;;;;;;4.60;4.20;;;;;;;;;;5092929;28;20036;-73
2023/12/20 14:26:43;;;;;;;5.93;4.35;;;;;;;;;;5092862;28;20077;-73
2023/12/20 14:29:09;;;;;;;6.13;4.22;;;;;;;;;;5075164;28;20065;-73
2023/12/20 14:31:34;;;;;;;4.57;4.18;;;;;;;;;;5094136;28;20036;-73
2023/12/20 14:34:03;;;;;;;4.00;3.70;;;;;;;;;;5093298;28;20020;-73
2023/12/20 14:36:30;;;;;;;7.07;5.45;;;;;;;;;;5074344;28;20024;-72
2023/12/20 14:38:56;;;;;;;6.28;4.82;;;;;;;;;;5093070;28;20032;-72
2023/12/20 14:41:24;;;;;;;9.65;5.20;;;;;;;;;;5092669;28;20035;-70
2023/12/20 14:43:49;;;;;;;8.15;6.57;;;;;;;;;;5092663;28;20577;-71
2023/12/20 14:46:15;;;;;;;9.63;6.82;;;;;;;;;;5092745;28;20059;-70
2023/12/20 14:48:41;;;;;;;10.48;7.72;;;;;;;;;;5092609;28;20072;-69
2023/12/20 14:51:07;;;;;;;10.05;6.72;;;;;;;;;;5074557;28;20048;-70
2023/12/20 14:53:33;;;;;;;10.80;8.55;;;;;;;;;;5092507;28;20029;-70